createdAt,value
2017-05-27T00:00:33.563Z,80.00
2017-05-27T00:03:02.604Z,80.10
2017-05-27T00:05:31.745Z,80.30
2017-05-27T00:08:00.802Z,80.30
2017-05-27T00:10:29.960Z,80.50
2017-05-27T00:12:59.014Z,80.40
2017-05-27T00:15:28.125Z,80.60
2017-05-27T00:17:57.232Z,81.30
2017-05-27T00:20:26.323Z,81.50
2017-05-27T00:22:55.413Z,81.60
2017-05-27T00:25:24.473Z,82.00
2017-05-27T00:27:53.615Z,81.40
2017-05-27T00:30:22.700Z,82.10
2017-05-27T00:32:51.748Z,82.20
2017-05-27T00:35:20.906Z,82.40
2017-05-27T00:37:50.006Z,82.20
2017-05-27T00:40:19.075Z,82.50
2017-05-27T00:42:48.184Z,82.80
2017-05-27T00:45:17.256Z,83.30
2017-05-27T00:47:46.312Z,83.50
2017-05-27T00:50:15.357Z,83.10
2017-05-27T00:52:44.468Z,83.10
2017-05-27T00:55:13.565Z,83.50
2017-05-27T00:57:42.629Z,84.10
2017-05-27T01:00:11.756Z,84.00
2017-05-27T01:02:40.852Z,84.10
2017-05-27T01:05:09.910Z,84.40
2017-05-27T01:07:39.042Z,84.10
2017-05-27T01:10:08.113Z,84.30
2017-05-27T01:12:37.165Z,84.70
2017-05-27T01:15:06.226Z,84.60
2017-05-27T01:17:35.273Z,84.60
2017-05-27T01:20:04.419Z,84.90
2017-05-27T01:22:33.493Z,84.90
2017-05-27T01:25:02.538Z,84.90
2017-05-27T01:27:31.614Z,84.70
2017-05-27T01:30:00.698Z,85.00
2017-05-27T01:32:29.808Z,84.90
2017-05-27T01:34:58.891Z,84.90
2017-05-27T01:37:27.936Z,84.80
2017-05-27T01:39:57.029Z,84.90
2017-05-27T01:42:26.079Z,84.90
2017-05-27T01:44:55.174Z,85.40
2017-05-27T01:47:24.268Z,86.00
2017-05-27T01:49:53.317Z,86.00
2017-05-27T01:52:22.414Z,86.00
2017-05-27T01:54:51.472Z,85.90
2017-05-27T01:57:20.560Z,85.90
2017-05-27T01:59:49.628Z,85.80
2017-05-27T02:02:18.681Z,86.30
2017-05-27T02:04:47.864Z,86.50
2017-05-27T02:07:16.921Z,86.40
2017-05-27T02:09:46.002Z,86.60
2017-05-27T02:12:15.084Z,86.70
2017-05-27T02:14:44.234Z,87.80
2017-05-27T02:17:13.341Z,86.80
2017-05-27T02:19:42.400Z,87.10
2017-05-27T02:22:11.462Z,87.10
2017-05-27T02:24:40.511Z,87.00
2017-05-27T02:27:09.598Z,87.10
2017-05-27T02:29:38.649Z,87.10
2017-05-27T02:32:07.688Z,87.20
2017-05-27T02:34:36.754Z,87.40
2017-05-27T02:37:05.796Z,87.20
2017-05-27T02:39:34.863Z,87.40
2017-05-27T02:42:03.970Z,87.40
2017-05-27T02:44:33.126Z,87.30
2017-05-27T02:47:02.153Z,87.20
2017-05-27T02:49:31.263Z,87.30
2017-05-27T02:52:00.324Z,87.20
2017-05-27T02:54:29.373Z,87.40
2017-05-27T02:56:58.444Z,87.40
2017-05-27T02:59:27.494Z,87.50
2017-05-27T03:01:56.538Z,87.50
2017-05-27T03:04:25.638Z,87.30
2017-05-27T03:06:54.733Z,87.40
2017-05-27T03:09:23.830Z,87.50
2017-05-27T03:11:52.881Z,87.70
2017-05-27T03:14:22.024Z,87.70
2017-05-27T03:16:51.133Z,87.90
2017-05-27T03:19:20.231Z,87.80
2017-05-27T03:21:49.322Z,87.70
2017-05-27T03:24:18.400Z,88.80
2017-05-27T03:26:47.448Z,87.60
2017-05-27T03:29:16.508Z,87.60
2017-05-27T03:31:45.585Z,87.60
2017-05-27T03:34:14.680Z,87.50
2017-05-27T03:36:43.720Z,87.50
2017-05-27T03:39:12.770Z,87.50
2017-05-27T03:41:41.865Z,87.20
2017-05-27T03:44:10.921Z,87.40
2017-05-27T03:46:39.985Z,87.30
2017-05-27T03:49:09.076Z,87.30
2017-05-27T03:51:38.154Z,87.20
2017-05-27T03:54:07.244Z,87.20
2017-05-27T03:56:36.334Z,86.80
2017-05-27T03:59:05.407Z,86.70
2017-05-27T04:01:34.448Z,86.70
2017-05-27T04:04:03.525Z,86.60
2017-05-27T04:06:32.620Z,86.40
2017-05-27T04:09:01.674Z,86.20
2017-05-27T04:11:30.816Z,86.40
2017-05-27T04:13:59.924Z,86.20
2017-05-27T04:16:28.297Z,86.20
2017-05-27T04:18:57.340Z,85.90
2017-05-27T04:21:26.485Z,85.50
2017-05-27T04:23:55.577Z,85.40
2017-05-27T04:26:24.684Z,85.10
2017-05-27T04:28:53.746Z,85.30
2017-05-27T04:31:22.789Z,85.00
2017-05-27T04:33:51.865Z,84.60
2017-05-27T04:36:20.961Z,84.50
2017-05-27T04:38:50.066Z,84.60
2017-05-27T04:41:19.151Z,84.30
2017-05-27T04:43:48.197Z,83.80
2017-05-27T04:46:17.342Z,83.80
2017-05-27T04:48:46.444Z,83.40
2017-05-27T04:51:15.546Z,82.90
2017-05-27T04:53:44.609Z,83.10
2017-05-27T04:56:13.658Z,82.40
2017-05-27T04:58:42.820Z,81.90
2017-05-27T05:01:11.862Z,81.00
2017-05-27T05:03:40.901Z,81.00
2017-05-27T05:06:09.958Z,81.30
2017-05-27T05:08:39.058Z,80.10
2017-05-27T05:11:08.133Z,79.80
2017-05-27T05:13:37.175Z,79.50
2017-05-27T05:16:06.228Z,79.00
2017-05-27T05:18:35.338Z,78.40
2017-05-27T05:21:04.393Z,78.20
2017-05-27T05:23:33.541Z,77.50
2017-05-27T05:26:02.580Z,77.30
2017-05-27T05:28:31.728Z,76.90
2017-05-27T05:31:00.802Z,76.40
2017-05-27T05:33:29.930Z,75.70
2017-05-27T05:35:59.023Z,75.60
2017-05-27T05:38:28.106Z,73.80
2017-05-27T05:40:57.220Z,75.60
2017-05-27T05:43:26.303Z,74.00
2017-05-27T05:45:55.355Z,73.10
2017-05-27T05:48:24.393Z,71.90
2017-05-27T05:50:53.499Z,71.00
2017-05-27T05:53:22.595Z,70.60
2017-05-27T05:55:51.676Z,70.20
2017-05-27T05:58:20.782Z,69.70
2017-05-27T06:00:49.817Z,69.30
2017-05-27T06:03:18.873Z,68.60
2017-05-27T06:05:47.938Z,67.90
2017-05-27T06:08:17.160Z,67.70
2017-05-27T06:10:46.252Z,67.40
2017-05-27T06:13:15.358Z,66.90
2017-05-27T06:15:44.444Z,66.70
2017-05-27T06:18:13.489Z,66.10
2017-05-27T06:20:42.636Z,66.60
2017-05-27T06:23:11.692Z,67.00
2017-05-27T06:25:40.828Z,65.80
2017-05-27T06:28:09.868Z,65.50
2017-05-27T06:30:38.909Z,65.30
2017-05-27T06:33:08.016Z,65.10
2017-05-27T06:35:37.052Z,64.50
2017-05-27T06:38:06.213Z,63.50
2017-05-27T06:40:35.305Z,62.90
2017-05-27T06:43:04.344Z,62.30
2017-05-27T06:45:33.418Z,63.30
2017-05-27T06:48:02.488Z,62.30
2017-05-27T06:50:31.585Z,61.40
2017-05-27T06:53:00.632Z,61.60
2017-05-27T06:55:29.773Z,61.70
2017-05-27T06:57:58.828Z,61.20
2017-05-27T07:00:27.883Z,59.70
2017-05-27T07:02:56.963Z,59.60
2017-05-27T07:05:26.005Z,58.80
2017-05-27T07:07:55.039Z,58.50
2017-05-27T07:10:24.168Z,57.90
2017-05-27T07:12:53.213Z,57.50
2017-05-27T07:15:22.284Z,57.30
2017-05-27T07:17:51.326Z,57.20
2017-05-27T07:20:20.445Z,57.40
2017-05-27T07:22:49.546Z,55.90
2017-05-27T07:25:18.587Z,56.00
2017-05-27T07:27:47.669Z,55.60
2017-05-27T07:30:16.728Z,55.70
2017-05-27T07:32:45.825Z,55.80
2017-05-27T07:35:14.893Z,54.40
2017-05-27T07:37:43.944Z,53.90
2017-05-27T07:40:13.100Z,53.70
2017-05-27T07:42:42.149Z,52.80
2017-05-27T07:45:11.310Z,52.60
2017-05-27T07:47:40.392Z,52.20
2017-05-27T07:50:09.506Z,51.70
2017-05-27T07:52:38.577Z,51.80
2017-05-27T07:55:07.626Z,51.20
2017-05-27T07:57:36.787Z,50.70
2017-05-27T08:00:05.887Z,50.70
2017-05-27T08:02:34.946Z,50.00
2017-05-27T08:05:04.010Z,50.60
2017-05-27T08:07:33.158Z,49.90
2017-05-27T08:10:02.269Z,48.90
2017-05-27T08:12:31.352Z,48.90
2017-05-27T08:15:00.403Z,49.30
2017-05-27T08:17:29.566Z,47.80
2017-05-27T08:19:58.613Z,47.60
2017-05-27T08:22:27.686Z,48.00
2017-05-27T08:24:56.740Z,47.50
2017-05-27T08:27:25.867Z,46.90
2017-05-27T08:29:54.908Z,46.20
2017-05-27T08:32:29.609Z,45.70
2017-05-27T08:34:58.658Z,47.10
2017-05-27T08:37:27.777Z,47.60
2017-05-27T08:39:56.965Z,46.30
2017-05-27T08:42:26.013Z,45.60
2017-05-27T08:44:55.136Z,44.50
2017-05-27T08:47:24.182Z,44.70
2017-05-27T08:49:53.337Z,42.60
2017-05-27T08:52:22.398Z,43.60
2017-05-27T08:54:51.445Z,42.60
2017-05-27T08:57:20.622Z,42.10
2017-05-27T08:59:49.665Z,42.30
2017-05-27T09:02:18.810Z,41.50
2017-05-27T09:04:47.868Z,41.80
2017-05-27T09:07:17.007Z,42.10
2017-05-27T09:09:46.045Z,42.30
2017-05-27T09:12:15.104Z,41.10
2017-05-27T09:14:44.178Z,41.50
2017-05-27T09:17:13.235Z,41.20
2017-05-27T09:19:42.305Z,40.20
2017-05-27T09:22:11.345Z,41.60
2017-05-27T09:24:40.481Z,40.90
2017-05-27T09:27:09.539Z,41.10
2017-05-27T09:29:38.667Z,41.80
2017-05-27T09:32:07.727Z,41.20
2017-05-27T09:34:36.856Z,40.80
2017-05-27T09:37:05.895Z,40.70
2017-05-27T09:39:35.058Z,39.80
2017-05-27T09:42:04.132Z,39.40
2017-05-27T09:44:33.249Z,39.70
2017-05-27T09:47:02.291Z,39.60
2017-05-27T09:49:31.349Z,39.40
2017-05-27T09:52:00.418Z,40.20
2017-05-27T09:54:29.473Z,38.70
2017-05-27T09:56:58.622Z,40.00
2017-05-27T09:59:27.660Z,39.50
2017-05-27T10:01:56.817Z,40.20
2017-05-27T10:04:25.917Z,40.90
2017-05-27T10:06:55.013Z,39.80
2017-05-27T10:09:24.075Z,39.30
2017-05-27T10:11:53.112Z,38.80
2017-05-27T10:14:22.159Z,39.00
2017-05-27T10:16:51.230Z,39.00
2017-05-27T10:19:20.389Z,40.20
2017-05-27T10:21:49.476Z,40.50
2017-05-27T10:24:18.521Z,39.00
2017-05-27T10:26:47.569Z,39.80
2017-05-27T10:29:16.626Z,37.90
2017-05-27T10:31:45.767Z,37.80
2017-05-27T10:34:14.831Z,38.00
2017-05-27T10:36:43.947Z,38.50
2017-05-27T10:39:13.002Z,38.50
2017-05-27T10:41:42.146Z,37.60
2017-05-27T10:44:11.225Z,37.60
2017-05-27T10:46:40.294Z,37.60
2017-05-27T10:49:09.437Z,37.10
2017-05-27T10:51:38.530Z,36.60
2017-05-27T10:54:07.592Z,38.40
2017-05-27T10:56:36.635Z,37.20
2017-05-27T10:59:05.806Z,37.00
2017-05-27T11:01:34.909Z,37.00
2017-05-27T11:04:03.957Z,35.90
2017-05-27T11:06:33.098Z,36.80
2017-05-27T11:09:02.204Z,38.20
2017-05-27T11:11:30.509Z,38.20
2017-05-27T11:13:59.566Z,37.80
2017-05-27T11:16:28.673Z,35.30
2017-05-27T11:18:57.734Z,37.30
2017-05-27T11:21:26.843Z,37.50
2017-05-27T11:23:55.943Z,35.40
2017-05-27T11:26:24.989Z,35.70
2017-05-27T11:28:54.025Z,35.30
2017-05-27T11:31:23.166Z,35.00
2017-05-27T11:33:52.245Z,35.80
2017-05-27T11:36:21.330Z,35.80
2017-05-27T11:38:50.367Z,34.20
2017-05-27T11:41:19.530Z,33.70
2017-05-27T11:43:48.627Z,33.60
2017-05-27T11:46:17.703Z,34.40
2017-05-27T11:48:46.769Z,34.30
2017-05-27T11:51:15.934Z,33.90
2017-05-27T11:53:44.969Z,33.00
2017-05-27T11:56:14.094Z,33.50
2017-05-27T11:58:43.156Z,34.00
2017-05-27T12:01:12.294Z,33.80
2017-05-27T12:03:41.373Z,32.80
2017-05-27T12:06:10.445Z,31.50
2017-05-27T12:08:39.484Z,28.50
2017-05-27T12:11:08.524Z,27.10
2017-05-27T12:13:37.589Z,24.30
2017-05-27T12:16:06.653Z,24.20
2017-05-27T12:18:35.743Z,23.00
2017-05-27T12:21:04.847Z,21.60
2017-05-27T12:23:33.934Z,21.00
2017-05-27T12:26:02.990Z,19.70
2017-05-27T12:28:32.055Z,18.60
2017-05-27T12:31:01.146Z,17.80
2017-05-27T12:33:30.190Z,17.80
2017-05-27T12:35:59.312Z,17.00
2017-05-27T12:38:28.421Z,18.00
2017-05-27T12:40:57.633Z,17.20
2017-05-27T12:43:26.707Z,16.50
2017-05-27T12:45:55.748Z,16.80
2017-05-27T12:48:24.792Z,16.50
2017-05-27T12:50:53.848Z,16.50
2017-05-27T12:53:22.982Z,16.70
2017-05-27T12:55:52.081Z,17.40
2017-05-27T12:58:21.159Z,17.80
2017-05-27T13:00:50.201Z,17.90
2017-05-27T13:03:19.252Z,18.00
2017-05-27T13:05:48.367Z,17.70
2017-05-27T13:08:17.406Z,18.10
2017-05-27T13:10:46.571Z,17.20
2017-05-27T13:13:15.606Z,17.30
2017-05-27T13:15:44.745Z,17.00
2017-05-27T13:18:13.819Z,17.00
2017-05-27T13:20:42.953Z,16.80
2017-05-27T13:23:12.038Z,17.00
2017-05-27T13:25:41.133Z,16.60
2017-05-27T13:28:10.238Z,17.40
2017-05-27T13:30:39.297Z,17.30
2017-05-27T13:33:08.342Z,18.10
2017-05-27T13:35:37.589Z,17.90
2017-05-27T13:38:06.721Z,18.00
2017-05-27T13:40:35.756Z,18.90
2017-05-27T13:43:04.820Z,18.70
2017-05-27T13:45:33.864Z,18.90
2017-05-27T13:48:02.925Z,18.80
2017-05-27T13:50:31.970Z,18.10
2017-05-27T13:53:01.032Z,18.30
2017-05-27T13:55:30.180Z,18.40
2017-05-27T13:57:59.239Z,17.50
2017-05-27T14:00:28.357Z,18.40
2017-05-27T14:02:57.475Z,17.50
2017-05-27T14:05:26.539Z,17.40
2017-05-27T14:07:55.670Z,17.60
2017-05-27T14:10:24.739Z,18.10
2017-05-27T14:12:53.769Z,18.80
2017-05-27T14:15:22.848Z,18.40
2017-05-27T14:17:51.905Z,18.20
2017-05-27T14:20:21.040Z,18.40
2017-05-27T14:22:50.141Z,18.30
2017-05-27T14:25:19.201Z,18.70
2017-05-27T14:27:48.241Z,19.50
2017-05-27T14:30:17.297Z,18.00
2017-05-27T14:32:46.350Z,18.00
2017-05-27T14:35:15.407Z,18.00
2017-05-27T14:37:44.463Z,18.50
2017-05-27T14:40:13.493Z,18.40
2017-05-27T14:42:42.589Z,18.20
2017-05-27T14:45:11.700Z,18.40
2017-05-27T14:47:40.740Z,18.60
2017-05-27T14:50:09.895Z,18.10
2017-05-27T14:52:38.937Z,17.90
2017-05-27T14:55:08.083Z,19.40
2017-05-27T14:57:37.130Z,18.90
2017-05-27T15:00:06.185Z,18.80
2017-05-27T15:02:35.296Z,18.60
2017-05-27T15:05:04.372Z,17.90
2017-05-27T15:07:33.454Z,18.60
2017-05-27T15:10:02.509Z,18.40
2017-05-27T15:12:31.651Z,19.00
2017-05-27T15:15:00.701Z,18.50
2017-05-27T15:17:29.833Z,18.70
2017-05-27T15:19:58.945Z,18.80
2017-05-27T15:22:28.053Z,19.10
2017-05-27T15:24:57.128Z,18.90
2017-05-27T15:27:26.179Z,19.60
2017-05-27T15:29:55.259Z,19.10
2017-05-27T15:32:24.294Z,20.10
2017-05-27T15:34:53.342Z,20.10
2017-05-27T15:37:22.415Z,20.20
2017-05-27T15:39:51.461Z,20.30
2017-05-27T15:42:20.519Z,19.70
2017-05-27T15:44:49.599Z,21.70
2017-05-27T15:47:18.653Z,20.60
2017-05-27T15:49:48.155Z,21.40
2017-05-27T15:52:17.200Z,21.00
2017-05-27T15:54:46.289Z,20.80
2017-05-27T15:57:15.385Z,21.50
2017-05-27T15:59:44.485Z,21.10
2017-05-27T16:02:13.572Z,20.60
2017-05-27T16:04:42.622Z,20.70
2017-05-27T16:07:11.682Z,21.10
2017-05-27T16:09:40.767Z,21.10
2017-05-27T16:12:09.855Z,21.10
2017-05-27T16:14:38.892Z,21.30
2017-05-27T16:17:07.940Z,21.20
2017-05-27T16:19:37.039Z,21.90
2017-05-27T16:22:06.238Z,21.80
2017-05-27T16:24:35.436Z,22.10
2017-05-27T16:27:04.567Z,21.90
2017-05-27T16:29:33.743Z,21.80
2017-05-27T16:32:02.782Z,21.60
2017-05-27T16:34:31.856Z,22.20
2017-05-27T16:37:00.894Z,21.80
2017-05-27T16:39:30.013Z,22.70
2017-05-27T16:41:59.063Z,22.60
2017-05-27T16:44:28.205Z,22.20
2017-05-27T16:46:57.642Z,22.20
2017-05-27T16:49:26.699Z,23.00
2017-05-27T16:51:55.744Z,22.70
2017-05-27T16:54:24.893Z,22.50
2017-05-27T16:56:53.992Z,22.90
2017-05-27T16:59:23.098Z,22.60
2017-05-27T17:01:52.158Z,22.30
2017-05-27T17:04:21.199Z,22.40
2017-05-27T17:06:50.278Z,22.60
2017-05-27T17:09:19.315Z,22.80
2017-05-27T17:11:48.377Z,23.00
2017-05-27T17:14:17.459Z,23.20
2017-05-27T17:16:46.556Z,22.60
2017-05-27T17:19:15.655Z,22.80
2017-05-27T17:21:44.709Z,23.10
2017-05-27T17:24:13.840Z,22.90
2017-05-27T17:26:42.950Z,22.90
2017-05-27T17:29:12.057Z,22.60
2017-05-27T17:31:41.128Z,23.00
2017-05-27T17:34:10.324Z,23.20
2017-05-27T17:36:39.384Z,22.90
2017-05-27T17:39:08.443Z,23.60
2017-05-27T17:41:37.497Z,24.00
2017-05-27T17:44:06.632Z,23.90
2017-05-27T17:46:35.665Z,24.30
2017-05-27T17:49:04.721Z,24.90
2017-05-27T17:51:33.804Z,24.70
2017-05-27T17:54:02.873Z,24.80
2017-05-27T17:56:31.917Z,24.90
2017-05-27T17:59:01.086Z,25.20
2017-05-27T18:01:30.138Z,24.90
2017-05-27T18:03:59.189Z,25.10
2017-05-27T18:06:28.270Z,24.60
2017-05-27T18:08:57.350Z,24.00
2017-05-27T18:11:26.473Z,24.40
2017-05-27T18:13:55.567Z,24.50
2017-05-27T18:16:24.686Z,24.60
2017-05-27T18:18:53.762Z,25.00
2017-05-27T18:21:22.865Z,24.70
2017-05-27T18:23:51.954Z,24.40
2017-05-27T18:26:21.055Z,24.80
2017-05-27T18:28:50.162Z,25.00
2017-05-27T18:31:19.209Z,24.80
2017-05-27T18:33:48.282Z,25.10
2017-05-27T18:36:17.355Z,25.70
2017-05-27T18:38:46.389Z,25.70
2017-05-27T18:41:15.518Z,26.10
2017-05-27T18:43:44.573Z,26.70
2017-05-27T18:46:13.616Z,27.10
2017-05-27T18:48:42.693Z,27.60
2017-05-27T18:51:11.761Z,28.00
2017-05-27T18:53:40.796Z,28.40
2017-05-27T18:56:09.866Z,29.30
2017-05-27T18:58:38.905Z,30.10
2017-05-27T19:01:08.011Z,30.60
2017-05-27T19:03:37.052Z,31.60
2017-05-27T19:06:06.170Z,32.50
2017-05-27T19:08:35.273Z,33.40
2017-05-27T19:11:04.464Z,34.10
2017-05-27T19:13:33.557Z,34.30
2017-05-27T19:16:02.604Z,34.80
2017-05-27T19:18:31.634Z,35.10
2017-05-27T19:21:00.680Z,34.70
2017-05-27T19:23:29.737Z,36.30
2017-05-27T19:25:58.855Z,36.00
2017-05-27T19:28:27.892Z,36.30
2017-05-27T19:30:56.970Z,36.70
2017-05-27T19:33:26.027Z,36.50
2017-05-27T19:35:55.215Z,36.80
2017-05-27T19:38:24.281Z,37.20
2017-05-27T19:40:53.426Z,37.30
2017-05-27T19:43:22.513Z,37.60
2017-05-27T19:45:51.552Z,37.50
2017-05-27T19:48:20.710Z,38.60
2017-05-27T19:50:49.754Z,38.50
2017-05-27T19:53:18.891Z,38.40
2017-05-27T19:55:47.989Z,38.50
2017-05-27T19:58:17.085Z,38.50
2017-05-27T20:00:46.183Z,39.30
2017-05-27T20:03:15.279Z,39.20
2017-05-27T20:05:44.316Z,39.30
2017-05-27T20:08:13.369Z,39.40
2017-05-27T20:10:42.457Z,40.10
2017-05-27T20:13:11.544Z,40.20
2017-05-27T20:15:40.590Z,40.10
2017-05-27T20:18:09.641Z,41.20
2017-05-27T20:20:38.701Z,40.90
2017-05-27T20:23:07.838Z,41.20
2017-05-27T20:25:36.912Z,41.10
2017-05-27T20:28:06.027Z,41.00
2017-05-27T20:30:35.131Z,41.40
2017-05-27T20:33:04.224Z,42.10
2017-05-27T20:35:33.313Z,42.90
2017-05-27T20:38:02.429Z,42.90
2017-05-27T20:40:31.510Z,43.20
2017-05-27T20:43:00.625Z,43.00
2017-05-27T20:45:29.724Z,42.90
2017-05-27T20:47:58.758Z,42.70
2017-05-27T20:50:27.810Z,42.50
2017-05-27T20:52:56.852Z,42.80
2017-05-27T20:55:25.917Z,42.20
2017-05-27T20:57:55.001Z,42.00
2017-05-27T21:00:24.079Z,41.70
2017-05-27T21:02:53.166Z,41.70
2017-05-27T21:05:22.275Z,41.10
2017-05-27T21:07:51.315Z,41.70
2017-05-27T21:10:20.366Z,41.70
2017-05-27T21:12:49.450Z,42.20
2017-05-27T21:15:18.530Z,42.00
2017-05-27T21:17:47.573Z,42.10
2017-05-27T21:20:16.653Z,42.20
2017-05-27T21:22:45.738Z,42.70
2017-05-27T21:25:14.783Z,42.30
2017-05-27T21:27:43.926Z,42.50
2017-05-27T21:30:12.966Z,42.80
2017-05-27T21:32:42.117Z,43.00
2017-05-27T21:35:11.188Z,43.20
2017-05-27T21:37:40.238Z,43.30
2017-05-27T21:40:09.303Z,43.70
2017-05-27T21:42:38.354Z,43.80
2017-05-27T21:45:07.446Z,43.80
2017-05-27T21:47:36.489Z,44.10
2017-05-27T21:50:05.542Z,44.40
2017-05-27T21:52:34.654Z,44.70
2017-05-27T21:55:03.696Z,44.80
2017-05-27T21:57:32.870Z,45.70
2017-05-27T22:00:01.969Z,45.40
2017-05-27T22:02:31.022Z,46.00
2017-05-27T22:05:00.091Z,46.10
2017-05-27T22:07:29.183Z,46.00
2017-05-27T22:09:58.218Z,46.20
2017-05-27T22:12:27.349Z,46.60
2017-05-27T22:14:56.400Z,46.70
2017-05-27T22:17:25.537Z,47.10
2017-05-27T22:19:54.582Z,46.90
2017-05-27T22:22:23.735Z,47.30
2017-05-27T22:24:52.827Z,47.20
2017-05-27T22:27:21.914Z,47.90
2017-05-27T22:29:50.975Z,47.90
2017-05-27T22:32:20.021Z,48.10
2017-05-27T22:34:49.126Z,47.90
2017-05-27T22:37:18.159Z,48.30
2017-05-27T22:39:47.244Z,48.30
2017-05-27T22:42:18.432Z,48.20
2017-05-27T22:44:47.596Z,48.20
2017-05-27T22:47:16.676Z,48.30
2017-05-27T22:49:45.708Z,49.10
2017-05-27T22:52:14.759Z,48.80
2017-05-27T22:54:43.824Z,48.80
2017-05-27T22:57:13.781Z,48.90
2017-05-27T22:59:42.895Z,49.20
2017-05-27T23:02:11.985Z,49.00
2017-05-27T23:04:41.091Z,49.30
2017-05-27T23:07:10.155Z,49.40
2017-05-27T23:09:39.288Z,49.50
2017-05-27T23:12:09.440Z,49.40
2017-05-27T23:14:38.480Z,49.90
2017-05-27T23:17:07.554Z,49.80
2017-05-27T23:19:36.685Z,50.10
2017-05-27T23:22:05.725Z,50.40
2017-05-27T23:24:34.820Z,50.30
2017-05-27T23:27:03.974Z,50.40
2017-05-27T23:29:33.018Z,50.80
2017-05-27T23:32:02.082Z,51.00
2017-05-27T23:34:31.151Z,51.00
2017-05-27T23:37:00.217Z,51.10
2017-05-27T23:39:29.268Z,50.90
2017-05-27T23:41:58.374Z,51.20
2017-05-27T23:44:27.431Z,51.30
2017-05-27T23:46:56.550Z,51.50
2017-05-27T23:49:25.713Z,51.30
2017-05-27T23:51:54.834Z,51.70
2017-05-27T23:54:23.883Z,52.20
2017-05-27T23:56:52.955Z,52.40
2017-05-27T23:59:22.016Z,52.30
